OLBA/BEY METAR and TAF weather

Enter ICAO airport designator
Station Type Date Time Source
OLBA METAR 2020/01/26 04:00 UTC NOAA

OLBA 260400Z 14008KT CAVOK 09/03 Q1031 NOSIG


Station Type Date Time Source
OLBA Decoded METAR 2020/01/26 04:00 UTC NOAA

Beyrouth Aeroport , Lebanon (OLBA) 33-49N 035-29E 19M
Jan 25, 2020 - 11:00 PM EST / 2020.01.26 0400 UTC
Wind: from the SE (140 degrees) at 9 MPH (8 KT):0
Visibility: greater than 7 mile(s):0
Temperature: 48 F (9 C)
Dew Point: 37 F (3 C)
Relative Humidity: 66%
Pressure (altimeter): 30.45 in. Hg (1031 hPa)
ob: OLBA 260400Z 14008KT CAVOK 09/03 Q1031 NOSIG
cycle: 4

Station Type Date Time Source
OLBA TAF 2020/01/26 06:54 UTC NOAA

TAF TAF OLBA 260400Z 2606/2712 VRB02KT 9999 NSC
BECMG 2609/2612 SCT200
BECMG 2612/2615 35005KT
BECMG 2618/2621 08005KT
BECMG 2621/2624 VRB02KT
BECMG 2709/2712 35004KT BKN180

Example: see airport list